createdAt,value
2023-01-26T00:01:16.975Z,55.00
2023-01-26T00:03:44.409Z,55.80
2023-01-26T00:06:13.612Z,54.37
2023-01-26T00:08:41.975Z,59.07
2023-01-26T00:11:10.838Z,58.07
2023-01-26T00:13:38.243Z,56.97
2023-01-26T00:16:05.841Z,56.67
2023-01-26T00:18:33.188Z,56.70
2023-01-26T00:21:01.556Z,60.33
2023-01-26T00:23:30.242Z,58.63
2023-01-26T00:25:57.713Z,56.30
2023-01-26T00:28:25.155Z,57.50
2023-01-26T00:30:52.544Z,57.53
2023-01-26T00:33:20.164Z,59.37
2023-01-26T00:35:54.643Z,58.77
2023-01-26T00:38:22.076Z,57.67
2023-01-26T00:40:49.704Z,60.77
2023-01-26T00:43:17.109Z,56.10
2023-01-26T00:45:44.656Z,56.93
2023-01-26T00:48:12.008Z,60.00
2023-01-26T00:50:39.362Z,58.47
2023-01-26T00:53:07.016Z,62.30
2023-01-26T00:55:34.328Z,59.03
2023-01-26T00:58:06.006Z,61.93
2023-01-26T01:00:34.147Z,58.40
2023-01-26T01:03:01.732Z,59.53
2023-01-26T01:05:30.462Z,56.03
2023-01-26T01:07:58.234Z,57.83
2023-01-26T01:10:27.390Z,59.60
2023-01-26T01:12:54.852Z,59.97
2023-01-26T01:15:24.232Z,60.07
2023-01-26T01:17:52.139Z,60.67
2023-01-26T01:20:19.642Z,61.00
2023-01-26T01:22:47.722Z,59.03
2023-01-26T01:25:15.212Z,58.90
2023-01-26T01:27:43.017Z,60.57
2023-01-26T01:30:11.014Z,61.27
2023-01-26T01:32:42.117Z,56.77
2023-01-26T01:35:09.655Z,56.20
2023-01-26T01:37:37.300Z,56.37
2023-01-26T01:40:04.798Z,58.37
2023-01-26T01:42:33.881Z,56.97
2023-01-26T01:45:30.263Z,57.97
2023-01-26T01:47:59.493Z,58.37
2023-01-26T01:50:26.948Z,62.70
2023-01-26T01:52:55.301Z,61.93
2023-01-26T01:55:24.736Z,58.27
2023-01-26T01:57:56.848Z,54.20
2023-01-26T02:00:24.635Z,55.80
2023-01-26T02:03:15.041Z,62.63
2023-01-26T02:05:48.701Z,59.30
2023-01-26T02:08:17.651Z,58.77
2023-01-26T02:10:47.102Z,59.37
2023-01-26T02:13:14.557Z,60.67
2023-01-26T02:15:43.440Z,59.87
2023-01-26T02:18:11.893Z,59.50
2023-01-26T02:21:06.945Z,57.50
2023-01-26T02:24:00.684Z,61.10
2023-01-26T02:26:29.953Z,60.87
2023-01-26T02:28:57.567Z,60.47
2023-01-26T02:31:25.994Z,64.37
2023-01-26T02:33:54.392Z,60.43
2023-01-26T02:36:24.572Z,64.27
2023-01-26T02:39:10.696Z,62.60
2023-01-26T02:41:57.169Z,54.20
2023-01-26T02:44:25.020Z,57.43
2023-01-26T02:46:53.828Z,56.50
2023-01-26T02:49:39.891Z,55.03
2023-01-26T02:52:08.069Z,59.77
2023-01-26T02:54:54.398Z,60.83
2023-01-26T02:57:22.059Z,57.97
2023-01-26T02:59:49.538Z,56.50
2023-01-26T03:02:17.194Z,56.73
2023-01-26T03:04:44.585Z,57.97
2023-01-26T03:07:12.427Z,57.83
2023-01-26T03:09:40.736Z,55.17
2023-01-26T03:12:09.378Z,54.83
2023-01-26T03:14:36.663Z,53.60
2023-01-26T03:17:04.250Z,52.33
2023-01-26T03:19:50.099Z,57.20
2023-01-26T03:22:37.798Z,44.87
2023-01-26T03:25:24.088Z,55.90
2023-01-26T03:27:53.892Z,56.57
2023-01-26T03:30:21.977Z,54.73
2023-01-26T03:32:50.544Z,55.27
2023-01-26T03:35:22.643Z,56.27
2023-01-26T03:37:54.652Z,56.70
2023-01-26T03:40:56.324Z,56.70
2023-01-26T03:43:42.856Z,57.80
2023-01-26T03:46:29.524Z,48.93
2023-01-26T03:49:15.475Z,54.20
2023-01-26T03:52:02.630Z,55.93
2023-01-26T03:54:48.468Z,54.50
2023-01-26T03:57:16.200Z,51.70
2023-01-26T03:59:44.201Z,47.90
2023-01-26T04:02:34.958Z,56.07
2023-01-26T04:05:21.840Z,52.80
2023-01-26T04:08:12.569Z,51.00
2023-01-26T04:10:39.970Z,52.23
2023-01-26T04:13:26.523Z,53.60
2023-01-26T04:16:18.750Z,51.17
2023-01-26T04:19:05.036Z,54.97
2023-01-26T04:21:34.007Z,50.10
2023-01-26T04:24:16.644Z,50.27
2023-01-26T04:26:45.747Z,50.17
2023-01-26T04:29:18.117Z,50.13
2023-01-26T04:31:47.264Z,51.93
2023-01-26T04:34:18.996Z,49.17
2023-01-26T04:36:46.309Z,48.60
2023-01-26T04:39:16.988Z,50.13
2023-01-26T04:41:48.232Z,50.63
2023-01-26T04:44:17.152Z,51.87
2023-01-26T04:46:46.083Z,57.03
2023-01-26T04:49:14.546Z,51.90
2023-01-26T04:51:41.897Z,50.57
2023-01-26T04:54:09.506Z,50.30
2023-01-26T04:56:43.389Z,52.37
2023-01-26T04:59:11.520Z,55.03
2023-01-26T05:01:41.601Z,53.60
2023-01-26T05:04:09.539Z,50.23
2023-01-26T05:06:40.544Z,53.27
2023-01-26T05:09:08.361Z,53.33
2023-01-26T05:11:38.288Z,50.97
2023-01-26T05:14:25.145Z,53.17
2023-01-26T05:17:15.955Z,53.03
2023-01-26T05:19:50.751Z,53.33
2023-01-26T05:22:37.323Z,59.60
2023-01-26T05:25:23.736Z,53.83
2023-01-26T05:28:01.293Z,50.10
2023-01-26T05:30:28.953Z,53.63
2023-01-26T05:33:02.527Z,50.30
2023-01-26T05:35:30.731Z,52.00
2023-01-26T05:37:58.992Z,49.13
2023-01-26T05:40:27.982Z,55.53
2023-01-26T05:42:56.051Z,49.93
2023-01-26T05:45:41.980Z,52.17
2023-01-26T05:48:11.039Z,51.53
2023-01-26T05:50:39.036Z,53.53
2023-01-26T05:53:24.947Z,50.03
2023-01-26T05:55:52.731Z,46.87
2023-01-26T05:58:23.784Z,44.83
2023-01-26T06:00:52.023Z,45.67
2023-01-26T06:03:25.831Z,48.53
2023-01-26T06:05:54.242Z,47.87
2023-01-26T06:08:33.861Z,47.83
2023-01-26T06:11:19.707Z,47.37
2023-01-26T06:13:57.622Z,46.03
2023-01-26T06:16:27.720Z,46.93
2023-01-26T06:18:56.294Z,46.37
2023-01-26T06:21:24.146Z,43.97
2023-01-26T06:23:51.620Z,47.60
2023-01-26T06:26:18.998Z,45.57
2023-01-26T06:28:46.819Z,46.97
2023-01-26T06:31:15.445Z,48.87
2023-01-26T06:33:43.755Z,46.50
2023-01-26T06:36:13.480Z,49.33
2023-01-26T06:38:46.282Z,49.33
2023-01-26T06:41:14.169Z,46.23
2023-01-26T06:43:45.045Z,48.73
2023-01-26T06:46:12.707Z,46.43
2023-01-26T06:48:40.457Z,48.47
2023-01-26T06:51:11.263Z,45.60
2023-01-26T06:53:44.252Z,50.30
2023-01-26T06:56:28.639Z,46.20
2023-01-26T06:59:16.563Z,42.83
2023-01-26T07:01:58.754Z,46.00
2023-01-26T07:04:27.661Z,46.73
2023-01-26T07:06:55.301Z,46.70
2023-01-26T07:09:22.946Z,43.73
2023-01-26T07:11:50.212Z,47.23
2023-01-26T07:14:17.695Z,43.90
2023-01-26T07:16:45.091Z,46.40
2023-01-26T07:19:12.420Z,46.83
2023-01-26T07:21:39.757Z,48.53
2023-01-26T07:24:08.101Z,48.13
2023-01-26T07:26:42.985Z,46.50
2023-01-26T07:29:11.977Z,47.80
2023-01-26T07:31:54.954Z,45.57
2023-01-26T07:34:22.765Z,46.17
2023-01-26T07:36:52.185Z,44.93
2023-01-26T07:39:19.555Z,45.43
2023-01-26T07:41:46.893Z,45.50
2023-01-26T07:44:32.981Z,45.77
2023-01-26T07:47:00.328Z,45.33
2023-01-26T07:49:27.849Z,48.30
2023-01-26T07:51:55.201Z,44.27
2023-01-26T07:54:22.659Z,46.20
2023-01-26T07:56:56.802Z,46.93
2023-01-26T07:59:24.404Z,46.27
2023-01-26T08:01:52.114Z,43.93
2023-01-26T08:04:19.704Z,47.77
2023-01-26T08:06:47.029Z,46.43
2023-01-26T08:09:14.672Z,48.27
2023-01-26T08:11:42.033Z,47.30
2023-01-26T08:14:09.420Z,47.90
2023-01-26T08:16:36.817Z,48.33
2023-01-26T08:19:04.450Z,48.30
2023-01-26T08:21:31.782Z,44.40
2023-01-26T08:24:01.971Z,42.93
2023-01-26T08:26:29.872Z,44.90
2023-01-26T08:28:57.224Z,46.80
2023-01-26T08:31:25.486Z,48.97
2023-01-26T08:33:55.138Z,48.30
2023-01-26T08:36:23.241Z,49.80
2023-01-26T08:38:51.191Z,48.73
2023-01-26T08:41:19.195Z,51.03
2023-01-26T08:43:46.765Z,48.17
2023-01-26T08:46:14.206Z,48.13
2023-01-26T08:48:41.589Z,49.13
2023-01-26T08:51:09.329Z,48.27
2023-01-26T08:53:37.694Z,47.50
2023-01-26T08:56:06.186Z,45.17
2023-01-26T08:58:33.841Z,46.07
2023-01-26T09:01:04.689Z,46.97
2023-01-26T09:03:32.196Z,46.60
2023-01-26T09:06:00.635Z,46.17
2023-01-26T09:08:28.393Z,48.77
2023-01-26T09:10:55.835Z,49.10
2023-01-26T09:13:23.315Z,47.57
2023-01-26T09:15:51.063Z,46.03
2023-01-26T09:18:18.634Z,45.77
2023-01-26T09:20:46.096Z,45.90
2023-01-26T09:23:13.536Z,41.87
2023-01-26T09:25:40.885Z,42.90
2023-01-26T09:28:08.262Z,44.20
2023-01-26T09:30:35.733Z,42.73
2023-01-26T09:33:04.139Z,41.77
2023-01-26T09:35:31.694Z,41.23
2023-01-26T09:37:59.010Z,42.93
2023-01-26T09:40:35.295Z,41.77
2023-01-26T09:43:12.255Z,40.97
2023-01-26T09:45:45.251Z,38.70
2023-01-26T09:48:15.725Z,42.17
2023-01-26T09:50:48.389Z,41.40
2023-01-26T09:53:19.320Z,34.67
2023-01-26T09:55:47.142Z,36.77
2023-01-26T09:58:16.703Z,38.13
2023-01-26T10:00:49.261Z,41.17
2023-01-26T10:03:37.497Z,40.37
2023-01-26T10:06:04.906Z,37.03
2023-01-26T10:09:03.661Z,37.10
2023-01-26T10:11:42.169Z,36.77
2023-01-26T10:14:15.754Z,40.33
2023-01-26T10:16:44.510Z,38.57
2023-01-26T10:19:15.025Z,38.20
2023-01-26T10:21:45.306Z,37.17
2023-01-26T10:24:12.863Z,36.63
2023-01-26T10:26:40.207Z,36.83
2023-01-26T10:29:07.736Z,38.13
2023-01-26T10:31:35.388Z,37.13
2023-01-26T10:34:09.849Z,39.97
2023-01-26T10:36:37.226Z,36.30
2023-01-26T10:39:06.222Z,35.00
2023-01-26T10:41:34.018Z,37.13
2023-01-26T10:44:10.267Z,33.53
2023-01-26T10:46:38.640Z,36.07
2023-01-26T10:49:08.854Z,31.30
2023-01-26T10:51:37.942Z,37.50
2023-01-26T10:54:14.452Z,36.07
2023-01-26T10:56:46.629Z,36.83
2023-01-26T10:59:18.674Z,36.20
2023-01-26T11:01:53.423Z,35.27
2023-01-26T11:04:21.260Z,36.33
2023-01-26T11:06:49.034Z,35.60
2023-01-26T11:09:26.033Z,34.43
2023-01-26T11:12:01.182Z,35.20
2023-01-26T11:14:29.391Z,33.70
2023-01-26T11:17:01.561Z,32.40
2023-01-26T11:19:28.880Z,30.30
2023-01-26T11:21:58.416Z,31.23
2023-01-26T11:24:29.083Z,30.80
2023-01-26T11:27:10.691Z,28.00
2023-01-26T11:29:56.700Z,32.03
2023-01-26T11:32:42.912Z,30.70
2023-01-26T11:35:31.237Z,31.60
2023-01-26T11:38:23.309Z,28.27
2023-01-26T11:40:59.856Z,32.30
2023-01-26T11:43:33.850Z,33.60
2023-01-26T11:46:10.419Z,30.90
2023-01-26T11:48:56.577Z,30.27
2023-01-26T11:51:26.698Z,33.33
2023-01-26T11:53:57.051Z,33.67
2023-01-26T11:56:30.427Z,29.67
2023-01-26T11:59:06.903Z,30.20
2023-01-26T12:01:42.100Z,28.83
2023-01-26T12:04:15.916Z,32.83
2023-01-26T12:06:45.578Z,19.90
2023-01-26T12:09:22.935Z,25.80
2023-01-26T12:11:55.918Z,29.03
2023-01-26T12:14:29.256Z,29.97
2023-01-26T12:17:17.688Z,25.93
2023-01-26T12:19:53.477Z,24.37
2023-01-26T12:22:21.044Z,29.70
2023-01-26T12:25:17.526Z,26.50
2023-01-26T12:27:44.961Z,23.90
2023-01-26T12:30:38.817Z,26.30
2023-01-26T12:33:06.739Z,26.50
2023-01-26T12:35:34.085Z,26.03
2023-01-26T12:38:17.655Z,24.43
2023-01-26T12:40:51.577Z,22.83
2023-01-26T12:43:19.143Z,24.67
2023-01-26T12:45:48.279Z,25.87
2023-01-26T12:48:19.013Z,22.90
2023-01-26T12:50:56.168Z,24.93
2023-01-26T12:53:30.181Z,24.57
2023-01-26T12:56:10.348Z,25.13
2023-01-26T12:58:42.961Z,26.23
2023-01-26T13:01:12.425Z,25.20
2023-01-26T13:03:42.546Z,24.23
2023-01-26T13:06:09.977Z,23.50
2023-01-26T13:08:37.296Z,23.13
2023-01-26T13:11:09.033Z,24.50
2023-01-26T13:13:53.503Z,23.87
2023-01-26T13:16:22.060Z,25.53
2023-01-26T13:18:53.173Z,26.00
2023-01-26T13:21:28.143Z,24.63
2023-01-26T13:23:55.830Z,24.17
2023-01-26T13:26:42.601Z,22.83
2023-01-26T13:29:25.299Z,23.30
2023-01-26T13:31:54.867Z,22.30
2023-01-26T13:34:27.846Z,20.53
2023-01-26T13:36:59.044Z,22.97
2023-01-26T13:39:31.770Z,22.20
2023-01-26T13:41:59.293Z,23.37
2023-01-26T13:44:37.530Z,24.83
2023-01-26T13:47:12.963Z,26.50
2023-01-26T13:49:41.424Z,24.50
2023-01-26T13:52:19.400Z,22.67
2023-01-26T13:54:47.493Z,24.37
2023-01-26T13:57:21.575Z,22.17
2023-01-26T13:59:49.909Z,20.53
2023-01-26T14:02:23.916Z,23.27
2023-01-26T14:04:52.162Z,22.53
2023-01-26T14:07:20.465Z,21.83
2023-01-26T14:09:51.830Z,21.60
2023-01-26T14:12:23.688Z,21.00
2023-01-26T14:14:52.021Z,21.27
2023-01-26T14:17:25.192Z,25.17
2023-01-26T14:19:52.629Z,22.50
2023-01-26T14:22:22.180Z,23.50
2023-01-26T14:24:51.093Z,22.53
2023-01-26T14:27:30.855Z,17.87
2023-01-26T14:29:59.063Z,21.83
2023-01-26T14:32:29.562Z,21.20
2023-01-26T14:34:58.500Z,20.20
2023-01-26T14:37:26.438Z,19.43
2023-01-26T14:40:13.505Z,19.43
2023-01-26T14:42:41.477Z,19.60
2023-01-26T14:45:13.184Z,15.73
2023-01-26T14:47:41.944Z,18.70
2023-01-26T14:50:29.747Z,17.90
2023-01-26T14:52:57.324Z,19.27
2023-01-26T14:55:27.151Z,18.07
2023-01-26T14:57:55.181Z,20.17
2023-01-26T15:00:27.830Z,17.63
2023-01-26T15:02:56.501Z,18.23
2023-01-26T15:05:37.679Z,19.13
2023-01-26T15:08:19.671Z,18.73
2023-01-26T15:11:19.383Z,19.00
2023-01-26T15:13:48.242Z,18.43
2023-01-26T15:16:17.389Z,18.77
2023-01-26T15:18:45.811Z,17.83
2023-01-26T15:21:14.877Z,19.10
2023-01-26T15:23:43.517Z,20.10
2023-01-26T15:26:14.070Z,18.90
2023-01-26T15:28:41.571Z,19.63
2023-01-26T15:31:10.891Z,20.43
2023-01-26T15:33:38.481Z,19.30
2023-01-26T15:36:06.476Z,19.00
2023-01-26T15:38:33.960Z,19.10
2023-01-26T15:41:04.981Z,21.17
2023-01-26T15:43:32.351Z,17.97
2023-01-26T15:46:01.265Z,18.40
2023-01-26T15:48:31.809Z,18.37
2023-01-26T15:50:59.178Z,18.73
2023-01-26T15:53:26.974Z,17.57
2023-01-26T15:55:56.032Z,19.03
2023-01-26T15:58:24.400Z,19.60
2023-01-26T16:00:55.190Z,18.03
2023-01-26T16:03:23.064Z,18.57
2023-01-26T16:05:50.463Z,17.23
2023-01-26T16:08:18.607Z,17.83
2023-01-26T16:10:46.350Z,16.77
2023-01-26T16:13:18.125Z,18.27
2023-01-26T16:15:47.197Z,19.93
2023-01-26T16:18:14.728Z,17.47
2023-01-26T16:20:43.219Z,17.50
2023-01-26T16:23:21.169Z,18.20
2023-01-26T16:25:49.801Z,18.17
2023-01-26T16:28:17.695Z,18.30
2023-01-26T16:30:45.597Z,20.53
2023-01-26T16:33:14.152Z,22.30
2023-01-26T16:35:41.584Z,20.60
2023-01-26T16:38:12.882Z,20.77
2023-01-26T16:40:44.846Z,20.13
2023-01-26T16:43:18.818Z,18.57
2023-01-26T16:45:46.201Z,20.17
2023-01-26T16:48:14.477Z,20.57
2023-01-26T16:50:42.067Z,19.50
2023-01-26T16:53:21.371Z,19.17
2023-01-26T16:55:48.756Z,21.07
2023-01-26T16:58:16.118Z,18.67
2023-01-26T17:00:43.778Z,20.73
2023-01-26T17:03:13.190Z,18.03
2023-01-26T17:05:41.038Z,18.60
2023-01-26T17:08:08.933Z,17.97
2023-01-26T17:10:36.391Z,18.93
2023-01-26T17:13:03.828Z,19.93
2023-01-26T17:15:31.525Z,21.30
2023-01-26T17:17:59.125Z,20.37
2023-01-26T17:20:27.115Z,20.53
2023-01-26T17:22:54.520Z,20.43
2023-01-26T17:25:22.096Z,20.83
2023-01-26T17:27:49.881Z,20.20
2023-01-26T17:30:20.134Z,21.23
2023-01-26T17:32:47.795Z,22.20
2023-01-26T17:35:15.233Z,20.40
2023-01-26T17:37:43.040Z,22.43
2023-01-26T17:40:10.813Z,21.70
2023-01-26T17:42:38.600Z,23.03
2023-01-26T17:45:06.706Z,21.37
2023-01-26T17:47:34.336Z,22.20
2023-01-26T17:50:02.228Z,23.87
2023-01-26T17:52:31.397Z,22.13
2023-01-26T17:54:59.036Z,21.47
2023-01-26T17:57:26.396Z,24.13
2023-01-26T17:59:53.804Z,25.37
2023-01-26T18:02:21.277Z,28.13
2023-01-26T18:04:48.884Z,21.23
2023-01-26T18:07:16.316Z,22.23
2023-01-26T18:09:43.688Z,20.93
2023-01-26T18:12:11.096Z,23.03
2023-01-26T18:14:38.445Z,20.73
2023-01-26T18:17:05.818Z,20.97
2023-01-26T18:19:33.383Z,20.40
2023-01-26T18:22:00.771Z,21.87
2023-01-26T18:24:28.265Z,23.83
2023-01-26T18:26:55.769Z,19.73
2023-01-26T18:29:23.272Z,20.97
2023-01-26T18:31:51.141Z,19.77
2023-01-26T18:34:18.590Z,21.70
2023-01-26T18:36:45.908Z,23.30
2023-01-26T18:39:14.780Z,19.23
2023-01-26T18:41:43.316Z,20.83
2023-01-26T18:44:10.766Z,19.80
2023-01-26T18:46:38.176Z,19.80
2023-01-26T18:49:06.242Z,20.40
2023-01-26T18:51:35.239Z,19.63
2023-01-26T18:54:04.128Z,22.53
2023-01-26T18:56:31.666Z,22.57
2023-01-26T18:58:59.740Z,20.33
2023-01-26T19:01:27.247Z,22.33
2023-01-26T19:03:55.842Z,22.20
2023-01-26T19:06:24.319Z,19.87
2023-01-26T19:08:58.484Z,24.00
2023-01-26T19:11:27.669Z,18.73
2023-01-26T19:13:56.025Z,20.87
2023-01-26T19:16:23.782Z,22.50
2023-01-26T19:18:51.907Z,20.97
2023-01-26T19:21:24.538Z,24.77
2023-01-26T19:23:53.284Z,21.03
2023-01-26T19:26:22.159Z,22.20
2023-01-26T19:28:51.086Z,23.77
2023-01-26T19:31:19.716Z,31.47
2023-01-26T19:33:51.583Z,25.47
2023-01-26T19:36:19.284Z,25.70
2023-01-26T19:38:46.903Z,24.67
2023-01-26T19:41:14.651Z,25.47
2023-01-26T19:43:42.611Z,24.87
2023-01-26T19:46:11.806Z,24.53
2023-01-26T19:48:39.909Z,24.63
2023-01-26T19:51:17.631Z,25.73
2023-01-26T19:53:46.498Z,23.43
2023-01-26T19:56:16.399Z,31.27
2023-01-26T19:58:44.567Z,29.17
2023-01-26T20:01:12.935Z,28.80
2023-01-26T20:03:40.400Z,28.77
2023-01-26T20:06:14.409Z,29.93
2023-01-26T20:08:41.901Z,27.33
2023-01-26T20:11:10.505Z,28.27
2023-01-26T20:13:38.271Z,26.63
2023-01-26T20:16:09.769Z,29.03
2023-01-26T20:18:37.220Z,26.30
2023-01-26T20:21:06.776Z,27.73
2023-01-26T20:23:34.603Z,28.67
2023-01-26T20:26:08.832Z,29.00
2023-01-26T20:28:36.870Z,30.13
2023-01-26T20:31:12.049Z,31.40
2023-01-26T20:33:39.518Z,29.27
2023-01-26T20:36:11.169Z,27.13
2023-01-26T20:38:38.704Z,29.20
2023-01-26T20:41:07.081Z,24.77
2023-01-26T20:43:35.954Z,22.43
2023-01-26T20:46:11.178Z,23.73
2023-01-26T20:48:39.011Z,19.93
2023-01-26T20:51:13.810Z,19.30
2023-01-26T20:53:42.157Z,17.77
2023-01-26T20:56:11.650Z,15.73
2023-01-26T20:58:39.801Z,18.60
2023-01-26T21:01:09.541Z,21.17
2023-01-26T21:03:37.626Z,21.93
2023-01-26T21:06:06.247Z,18.97
2023-01-26T21:08:34.281Z,21.87
2023-01-26T21:11:02.500Z,27.50
2023-01-26T21:13:29.918Z,27.93
2023-01-26T21:15:57.301Z,27.10
2023-01-26T21:18:24.792Z,22.70
2023-01-26T21:21:00.004Z,23.27
2023-01-26T21:23:27.631Z,27.00
2023-01-26T21:26:02.111Z,25.70
2023-01-26T21:28:30.026Z,26.43
2023-01-26T21:31:01.665Z,13.80
2023-01-26T21:33:29.769Z,18.63
2023-01-26T21:36:00.963Z,16.53
2023-01-26T21:38:30.985Z,20.98
2023-01-26T21:41:02.248Z,15.63
2023-01-26T21:43:30.392Z,16.37
2023-01-26T21:45:58.427Z,14.27
2023-01-26T21:48:35.602Z,20.25
2023-01-26T21:51:21.718Z,19.37
2023-01-26T21:53:49.146Z,20.23
2023-01-26T21:56:16.958Z,16.73
2023-01-26T21:59:03.038Z,15.90
2023-01-26T22:01:31.519Z,14.87
2023-01-26T22:04:00.367Z,13.80
2023-01-26T22:06:28.492Z,18.77
2023-01-26T22:08:58.282Z,19.00
2023-01-26T22:11:26.458Z,19.60
2023-01-26T22:13:54.736Z,17.40
2023-01-26T22:16:22.584Z,16.70
2023-01-26T22:18:50.233Z,18.57
2023-01-26T22:21:18.658Z,16.87
2023-01-26T22:23:46.207Z,17.80
2023-01-26T22:26:15.125Z,17.33
2023-01-26T22:28:49.940Z,19.07
2023-01-26T22:31:18.498Z,17.63
2023-01-26T22:33:46.794Z,18.00
2023-01-26T22:36:14.296Z,18.37
2023-01-26T22:38:42.128Z,20.43
2023-01-26T22:41:13.209Z,19.63
2023-01-26T22:43:41.093Z,26.95
2023-01-26T22:46:09.969Z,22.50
2023-01-26T22:48:39.433Z,22.17
2023-01-26T22:51:09.043Z,21.97
2023-01-26T22:53:37.096Z,22.37
2023-01-26T22:56:05.695Z,22.17
2023-01-26T22:58:35.224Z,26.73
2023-01-26T23:01:08.720Z,23.10
2023-01-26T23:03:36.449Z,22.70
2023-01-26T23:06:04.612Z,22.53
2023-01-26T23:08:32.581Z,21.33
2023-01-26T23:11:04.127Z,19.80
2023-01-26T23:13:31.877Z,18.30
2023-01-26T23:15:59.299Z,19.63
2023-01-26T23:18:26.878Z,16.90
2023-01-26T23:20:54.611Z,16.60
2023-01-26T23:23:22.639Z,16.13
2023-01-26T23:25:50.625Z,16.93
2023-01-26T23:28:22.778Z,15.30
2023-01-26T23:30:50.958Z,15.50
2023-01-26T23:33:18.852Z,16.17
2023-01-26T23:35:46.411Z,16.30
2023-01-26T23:38:13.840Z,15.87
2023-01-26T23:40:41.670Z,17.43
2023-01-26T23:43:16.540Z,16.27
2023-01-26T23:45:45.394Z,16.43
2023-01-26T23:48:12.812Z,17.20
2023-01-26T23:50:40.477Z,16.23
2023-01-26T23:53:08.217Z,17.30
2023-01-26T23:55:36.078Z,19.93
2023-01-26T23:58:03.480Z,15.87
